createdAt,value
2022-12-23T00:00:50.487Z,986.04
2022-12-23T00:01:50.639Z,986.02
2022-12-23T00:02:50.717Z,986.05
2022-12-23T00:03:50.557Z,986.03
2022-12-23T00:04:50.547Z,985.98
2022-12-23T00:05:50.565Z,986.02
2022-12-23T00:06:50.575Z,985.94
2022-12-23T00:07:50.628Z,985.99
2022-12-23T00:08:50.609Z,985.95
2022-12-23T00:09:50.640Z,985.95
2022-12-23T00:10:50.643Z,985.92
2022-12-23T00:11:50.654Z,985.98
2022-12-23T00:12:50.667Z,985.96
2022-12-23T00:13:50.684Z,985.99
2022-12-23T00:14:50.699Z,985.94
2022-12-23T00:15:50.752Z,985.98
2022-12-23T00:16:51.419Z,985.97
2022-12-23T00:17:50.745Z,985.98
2022-12-23T00:18:50.764Z,985.93
2022-12-23T00:19:50.775Z,985.93
2022-12-23T00:20:50.791Z,985.91
2022-12-23T00:21:50.824Z,985.98
2022-12-23T00:22:50.821Z,985.96
2022-12-23T00:23:50.859Z,985.99
2022-12-23T00:24:50.859Z,986
2022-12-23T00:25:50.876Z,986.03
2022-12-23T00:26:50.880Z,986.02
2022-12-23T00:27:50.902Z,986.01
2022-12-23T00:28:50.915Z,986.02
2022-12-23T00:29:50.928Z,985.97
2022-12-23T00:30:50.943Z,985.97
2022-12-23T00:31:50.989Z,986.01
2022-12-23T00:32:50.974Z,985.97
2022-12-23T00:33:51.002Z,985.98
2022-12-23T00:34:51.003Z,985.99
2022-12-23T00:35:51.102Z,985.92
2022-12-23T00:36:51.035Z,985.94
2022-12-23T00:37:51.051Z,985.91
2022-12-23T00:38:51.067Z,985.91
2022-12-23T00:39:54.867Z,985.91
2022-12-23T00:40:51.099Z,985.87
2022-12-23T00:41:51.118Z,985.87
2022-12-23T00:42:51.133Z,985.87
2022-12-23T00:43:51.136Z,985.85
2022-12-23T00:44:51.157Z,985.84
2022-12-23T00:45:51.198Z,985.89
2022-12-23T00:46:51.193Z,985.89
2022-12-23T00:47:51.205Z,985.86
2022-12-23T00:48:51.219Z,985.85
2022-12-23T00:49:51.236Z,985.94
2022-12-23T00:50:51.251Z,985.89
2022-12-23T00:51:51.265Z,985.92
2022-12-23T00:52:51.284Z,985.9
2022-12-23T00:53:51.296Z,985.91
2022-12-23T00:54:51.317Z,985.92
2022-12-23T00:55:51.355Z,985.91
2022-12-23T00:56:51.347Z,985.97
2022-12-23T00:57:51.354Z,985.91
2022-12-23T00:58:51.405Z,985.92
2022-12-23T00:59:51.391Z,985.93
2022-12-23T01:00:51.424Z,985.94
2022-12-23T01:01:51.616Z,985.96
2022-12-23T01:02:51.601Z,986.02
2022-12-23T01:03:51.493Z,986.06
2022-12-23T01:04:51.468Z,986.03
2022-12-23T01:05:51.480Z,986.08
2022-12-23T01:06:51.494Z,986.1
2022-12-23T01:07:51.512Z,986.09
2022-12-23T01:08:51.599Z,986.1
2022-12-23T01:09:51.602Z,986.11
2022-12-23T01:10:51.572Z,986.11
2022-12-23T01:11:51.604Z,986.12
2022-12-23T01:12:51.589Z,986.16
2022-12-23T01:13:51.602Z,986.13
2022-12-23T01:14:51.614Z,986.1
2022-12-23T01:15:51.634Z,986.11
2022-12-23T01:16:51.750Z,986.1
2022-12-23T01:17:51.664Z,986.13
2022-12-23T01:18:51.679Z,986.1
2022-12-23T01:19:51.723Z,986.1
2022-12-23T01:20:51.711Z,986.12
2022-12-23T01:21:51.723Z,986.1
2022-12-23T01:22:51.737Z,986.13
2022-12-23T01:23:51.758Z,986.16
2022-12-23T01:24:51.768Z,986.15
2022-12-23T01:25:51.788Z,986.15
2022-12-23T01:26:51.801Z,986.18
2022-12-23T01:27:51.841Z,986.16
2022-12-23T01:28:51.829Z,986.16
2022-12-23T01:29:51.848Z,986.19
2022-12-23T01:30:51.863Z,986.19
2022-12-23T01:31:52.032Z,986.18
2022-12-23T01:32:51.895Z,986.13
2022-12-23T01:33:51.911Z,986.15
2022-12-23T01:34:51.935Z,986.2
2022-12-23T01:35:51.937Z,986.2
2022-12-23T01:36:51.959Z,986.17
2022-12-23T01:37:51.966Z,986.24
2022-12-23T01:38:51.987Z,986.17
2022-12-23T01:39:51.996Z,986.19
2022-12-23T01:40:52.017Z,986.22
2022-12-23T01:41:52.028Z,986.24
2022-12-23T01:42:52.045Z,986.25
2022-12-23T01:43:52.203Z,986.31
2022-12-23T01:44:52.076Z,986.31
2022-12-23T01:45:52.153Z,986.29
2022-12-23T01:46:52.111Z,986.29
2022-12-23T01:47:52.121Z,986.31
2022-12-23T01:48:52.134Z,986.27
2022-12-23T01:49:52.148Z,986.25
2022-12-23T01:50:52.168Z,986.28
2022-12-23T01:51:52.179Z,986.3
2022-12-23T01:52:52.207Z,986.34
2022-12-23T01:53:52.212Z,986.32
2022-12-23T01:54:52.226Z,986.31
2022-12-23T01:55:52.288Z,986.33
2022-12-23T01:56:52.292Z,986.3
2022-12-23T01:57:52.298Z,986.33
2022-12-23T01:58:52.724Z,986.33
2022-12-23T01:59:52.331Z,986.33
2022-12-23T02:00:52.398Z,986.35
2022-12-23T02:01:52.479Z,986.33
2022-12-23T02:02:52.478Z,986.38
2022-12-23T02:03:52.373Z,986.35
2022-12-23T02:04:52.382Z,986.36
2022-12-23T02:05:52.399Z,986.39
2022-12-23T02:06:52.411Z,986.38
2022-12-23T02:07:52.427Z,986.32
2022-12-23T02:08:52.448Z,986.33
2022-12-23T02:09:52.460Z,986.25
2022-12-23T02:10:52.474Z,986.25
2022-12-23T02:11:52.491Z,986.28
2022-12-23T02:12:52.508Z,986.21
2022-12-23T02:13:52.525Z,986.25
2022-12-23T02:14:52.534Z,986.22
2022-12-23T02:15:52.576Z,986.25
2022-12-23T02:16:52.821Z,986.24
2022-12-23T02:17:52.605Z,986.26
2022-12-23T02:18:52.604Z,986.23
2022-12-23T02:19:52.615Z,986.23
2022-12-23T02:20:52.628Z,986.25
2022-12-23T02:21:52.643Z,986.25
2022-12-23T02:22:52.658Z,986.32
2022-12-23T02:23:52.684Z,986.31
2022-12-23T02:24:52.696Z,986.31
2022-12-23T02:25:52.709Z,986.31
2022-12-23T02:26:52.731Z,986.28
2022-12-23T02:27:52.735Z,986.33
2022-12-23T02:28:52.748Z,986.36
2022-12-23T02:29:52.768Z,986.31
2022-12-23T02:30:52.794Z,986.32
2022-12-23T02:31:52.823Z,986.31
2022-12-23T02:32:52.812Z,986.32
2022-12-23T02:33:52.825Z,986.32
2022-12-23T02:34:52.864Z,986.36
2022-12-23T02:35:52.862Z,986.37
2022-12-23T02:36:52.874Z,986.37
2022-12-23T02:37:52.885Z,986.37
2022-12-23T02:38:52.904Z,986.33
2022-12-23T02:39:52.918Z,986.37
2022-12-23T02:40:52.931Z,986.37
2022-12-23T02:41:52.951Z,986.36
2022-12-23T02:42:52.970Z,986.37
2022-12-23T02:43:52.977Z,986.39
2022-12-23T02:44:53.002Z,986.37
2022-12-23T02:45:53.026Z,986.42
2022-12-23T02:46:53.024Z,986.39
2022-12-23T02:47:53.063Z,986.42
2022-12-23T02:48:53.072Z,986.37
2022-12-23T02:49:53.072Z,986.39
2022-12-23T02:50:53.089Z,986.41
2022-12-23T02:51:53.105Z,986.42
2022-12-23T02:52:53.116Z,986.41
2022-12-23T02:53:53.128Z,986.4
2022-12-23T02:54:53.146Z,986.4
2022-12-23T02:55:53.161Z,986.43
2022-12-23T02:56:53.179Z,986.47
2022-12-23T02:57:53.192Z,986.46
2022-12-23T02:58:53.217Z,986.45
2022-12-23T02:59:53.244Z,986.45
2022-12-23T03:00:53.246Z,986.42
2022-12-23T03:01:53.378Z,986.47
2022-12-23T03:02:53.377Z,986.44
2022-12-23T03:03:53.336Z,986.47
2022-12-23T03:04:53.302Z,986.44
2022-12-23T03:05:53.315Z,986.42
2022-12-23T03:06:53.331Z,986.51
2022-12-23T03:07:53.345Z,986.47
2022-12-23T03:08:53.365Z,986.44
2022-12-23T03:09:53.377Z,986.46
2022-12-23T03:10:53.394Z,986.5
2022-12-23T03:11:53.408Z,986.46
2022-12-23T03:12:53.430Z,986.5
2022-12-23T03:13:53.439Z,986.48
2022-12-23T03:14:53.458Z,986.52
2022-12-23T03:15:53.561Z,986.49
2022-12-23T03:16:53.534Z,986.49
2022-12-23T03:17:53.499Z,986.45
2022-12-23T03:18:53.514Z,986.51
2022-12-23T03:19:53.564Z,986.51
2022-12-23T03:20:53.555Z,986.5
2022-12-23T03:21:53.563Z,986.53
2022-12-23T03:22:53.584Z,986.51
2022-12-23T03:23:55.624Z,986.56
2022-12-23T03:24:53.604Z,986.55
2022-12-23T03:25:53.624Z,986.59
2022-12-23T03:26:53.635Z,986.61
2022-12-23T03:27:53.653Z,986.67
2022-12-23T03:28:53.666Z,986.61
2022-12-23T03:29:53.685Z,986.61
2022-12-23T03:30:53.733Z,986.6
2022-12-23T03:31:53.727Z,986.65
2022-12-23T03:32:53.728Z,986.59
2022-12-23T03:33:53.745Z,986.64
2022-12-23T03:34:53.763Z,986.69
2022-12-23T03:35:53.805Z,986.64
2022-12-23T03:36:53.798Z,986.67
2022-12-23T03:37:53.808Z,986.68
2022-12-23T03:38:53.820Z,986.68
2022-12-23T03:39:53.839Z,986.69
2022-12-23T03:40:53.851Z,986.71
2022-12-23T03:41:53.866Z,986.72
2022-12-23T03:42:53.892Z,986.7
2022-12-23T03:43:53.902Z,986.75
2022-12-23T03:45:19.575Z,986.78
2022-12-23T03:45:53.928Z,986.83
2022-12-23T03:46:53.980Z,986.8
2022-12-23T03:47:53.961Z,986.79
2022-12-23T03:48:53.978Z,986.76
2022-12-23T03:49:53.999Z,986.79
2022-12-23T03:50:54.042Z,986.79
2022-12-23T03:51:54.047Z,986.85
2022-12-23T03:52:54.049Z,986.83
2022-12-23T03:53:54.051Z,986.83
2022-12-23T03:54:54.072Z,986.85
2022-12-23T03:55:54.084Z,986.85
2022-12-23T03:56:54.097Z,986.87
2022-12-23T03:57:54.116Z,986.85
2022-12-23T03:58:54.133Z,986.83
2022-12-23T03:59:54.147Z,986.84
2022-12-23T04:00:54.159Z,986.82
2022-12-23T04:01:54.262Z,986.84
2022-12-23T04:02:54.304Z,986.89
2022-12-23T04:03:54.281Z,986.92
2022-12-23T04:04:54.219Z,986.92
2022-12-23T04:05:54.232Z,986.91
2022-12-23T04:06:54.250Z,986.93
2022-12-23T04:07:54.293Z,986.98
2022-12-23T04:08:54.281Z,987.02
2022-12-23T04:09:54.299Z,987.02
2022-12-23T04:10:54.332Z,987.04
2022-12-23T04:11:54.332Z,987.03
2022-12-23T04:12:54.344Z,987.05
2022-12-23T04:13:54.358Z,987.05
2022-12-23T04:14:54.371Z,987.07
2022-12-23T04:15:54.427Z,987.07
2022-12-23T04:16:54.802Z,987.07
2022-12-23T04:17:54.415Z,987.07
2022-12-23T04:18:54.433Z,987.09
2022-12-23T04:19:54.450Z,987.12
2022-12-23T04:20:54.468Z,987.12
2022-12-23T04:21:54.481Z,987.15
2022-12-23T04:22:54.501Z,987.14
2022-12-23T04:23:54.534Z,987.14
2022-12-23T04:24:54.529Z,987.16
2022-12-23T04:25:54.540Z,987.12
2022-12-23T04:26:54.586Z,987.2
2022-12-23T04:27:54.572Z,987.19
2022-12-23T04:28:54.589Z,987.17
2022-12-23T04:29:54.606Z,987.11
2022-12-23T04:30:54.669Z,987.17
2022-12-23T04:31:54.702Z,987.16
2022-12-23T04:32:54.648Z,987.18
2022-12-23T04:33:54.679Z,987.18
2022-12-23T04:34:54.679Z,987.1
2022-12-23T04:35:54.730Z,987.13
2022-12-23T04:36:54.713Z,987.12
2022-12-23T04:37:54.722Z,987.13
2022-12-23T04:38:54.744Z,987.14
2022-12-23T04:39:54.781Z,987.13
2022-12-23T04:40:54.772Z,987.13
2022-12-23T04:41:54.790Z,987.16
2022-12-23T04:42:54.846Z,987.17
2022-12-23T04:43:54.821Z,987.13
2022-12-23T04:44:54.832Z,987.15
2022-12-23T04:45:54.854Z,987.17
2022-12-23T04:46:54.917Z,987.19
2022-12-23T04:47:54.876Z,987.22
2022-12-23T04:48:54.906Z,987.18
2022-12-23T04:49:54.915Z,987.15
2022-12-23T04:50:54.926Z,987.15
2022-12-23T04:51:54.938Z,987.23
2022-12-23T04:52:54.960Z,987.2
2022-12-23T04:53:54.968Z,987.22
2022-12-23T04:54:54.988Z,987.24
2022-12-23T04:55:55.033Z,987.22
2022-12-23T04:56:55.018Z,987.22
2022-12-23T04:57:55.030Z,987.22
2022-12-23T04:58:55.050Z,987.2
2022-12-23T04:59:55.068Z,987.25
2022-12-23T05:00:55.137Z,987.28
2022-12-23T05:01:55.245Z,987.29
2022-12-23T05:02:55.237Z,987.28
2022-12-23T05:03:55.127Z,987.23
2022-12-23T05:04:55.142Z,987.29
2022-12-23T05:05:55.171Z,987.21
2022-12-23T05:06:55.185Z,987.26
2022-12-23T05:07:55.187Z,987.23
2022-12-23T05:08:55.204Z,987.24
2022-12-23T05:09:55.218Z,987.22
2022-12-23T05:10:55.232Z,987.33
2022-12-23T05:11:55.276Z,987.28
2022-12-23T05:12:55.271Z,987.26
2022-12-23T05:13:55.283Z,987.28
2022-12-23T05:14:55.293Z,987.27
2022-12-23T05:15:55.380Z,987.28
2022-12-23T05:16:55.813Z,987.32
2022-12-23T05:17:55.339Z,987.33
2022-12-23T05:18:55.361Z,987.38
2022-12-23T05:19:55.373Z,987.34
2022-12-23T05:20:55.386Z,987.38
2022-12-23T05:21:55.403Z,987.39
2022-12-23T05:22:55.416Z,987.42
2022-12-23T05:23:55.452Z,987.37
2022-12-23T05:24:55.451Z,987.35
2022-12-23T05:25:55.473Z,987.36
2022-12-23T05:26:59.621Z,987.38
2022-12-23T05:27:55.524Z,987.33
2022-12-23T05:28:55.508Z,987.41
2022-12-23T05:29:55.530Z,987.4
2022-12-23T05:30:55.539Z,987.43
2022-12-23T05:31:55.670Z,987.48
2022-12-23T05:32:55.569Z,987.51
2022-12-23T05:33:57.459Z,987.51
2022-12-23T05:34:55.606Z,987.53
2022-12-23T05:35:55.617Z,987.57
2022-12-23T05:36:55.629Z,987.58
2022-12-23T05:37:55.647Z,987.65
2022-12-23T05:38:55.654Z,987.61
2022-12-23T05:39:55.684Z,987.61
2022-12-23T05:40:55.695Z,987.66
2022-12-23T05:41:55.708Z,987.65
2022-12-23T05:42:55.723Z,987.73
2022-12-23T05:43:55.767Z,987.67
2022-12-23T05:44:55.753Z,987.65
2022-12-23T05:45:55.848Z,987.65
2022-12-23T05:46:55.792Z,987.64
2022-12-23T05:47:55.796Z,987.65
2022-12-23T05:48:55.817Z,987.6
2022-12-23T05:49:55.825Z,987.62
2022-12-23T05:50:55.843Z,987.6
2022-12-23T05:51:55.864Z,987.57
2022-12-23T05:52:55.876Z,987.57
2022-12-23T05:53:55.887Z,987.58
2022-12-23T05:54:55.904Z,987.63
2022-12-23T05:55:55.918Z,987.6
2022-12-23T05:56:55.953Z,987.59
2022-12-23T05:57:55.975Z,987.54
2022-12-23T05:58:55.969Z,987.55
2022-12-23T05:59:56.008Z,987.58
2022-12-23T06:00:55.994Z,987.58
2022-12-23T06:01:56.185Z,987.57
2022-12-23T06:02:56.139Z,987.59
2022-12-23T06:03:56.134Z,987.57
2022-12-23T06:04:56.058Z,987.62
2022-12-23T06:05:56.072Z,987.63
2022-12-23T06:06:56.090Z,987.6
2022-12-23T06:07:56.104Z,987.64
2022-12-23T06:08:59.731Z,987.62
2022-12-23T06:09:56.133Z,987.6
2022-12-23T06:10:56.151Z,987.61
2022-12-23T06:11:56.164Z,987.59
2022-12-23T06:12:56.191Z,987.65
2022-12-23T06:13:56.197Z,987.64
2022-12-23T06:14:56.212Z,987.65
2022-12-23T06:15:56.370Z,987.66
2022-12-23T06:16:56.446Z,987.65
2022-12-23T06:17:56.255Z,987.63
2022-12-23T06:18:56.294Z,987.62
2022-12-23T06:19:56.288Z,987.58
2022-12-23T06:20:56.309Z,987.61
2022-12-23T06:21:56.320Z,987.66
2022-12-23T06:22:56.333Z,987.67
2022-12-23T06:23:56.348Z,987.71
2022-12-23T06:24:56.364Z,987.7
2022-12-23T06:25:56.377Z,987.71
2022-12-23T06:26:57.366Z,987.76
2022-12-23T06:27:56.409Z,987.72
2022-12-23T06:28:56.430Z,987.8
2022-12-23T06:29:56.442Z,987.85
2022-12-23T06:30:56.457Z,987.81
2022-12-23T06:31:56.557Z,987.85
2022-12-23T06:32:56.489Z,987.88
2022-12-23T06:33:56.511Z,987.86
2022-12-23T06:34:56.521Z,987.85
2022-12-23T06:35:56.531Z,987.94
2022-12-23T06:36:56.550Z,987.96
2022-12-23T06:37:56.567Z,988.03
2022-12-23T06:38:56.576Z,988.01
2022-12-23T06:39:56.595Z,988.03
2022-12-23T06:40:56.618Z,988.02
2022-12-23T06:41:56.627Z,987.99
2022-12-23T06:42:56.645Z,988.03
2022-12-23T06:43:56.677Z,988
2022-12-23T06:44:56.670Z,987.99
2022-12-23T06:45:56.756Z,988
2022-12-23T06:46:56.701Z,988.01
2022-12-23T06:47:56.746Z,988.09
2022-12-23T06:48:56.747Z,988.06
2022-12-23T06:49:56.748Z,988.13
2022-12-23T06:50:56.763Z,988.18
2022-12-23T06:51:56.777Z,988.18
2022-12-23T06:52:56.796Z,988.18
2022-12-23T06:53:56.811Z,988.17
2022-12-23T06:54:56.833Z,988.22
2022-12-23T06:55:56.844Z,988.21
2022-12-23T06:56:56.852Z,988.23
2022-12-23T06:57:56.878Z,988.29
2022-12-23T06:58:56.885Z,988.28
2022-12-23T06:59:56.901Z,988.29
2022-12-23T07:00:56.941Z,988.29
2022-12-23T07:01:57.056Z,988.32
2022-12-23T07:02:57.078Z,988.27
2022-12-23T07:03:57.034Z,988.28
2022-12-23T07:04:56.979Z,988.29
2022-12-23T07:05:56.997Z,988.27
2022-12-23T07:06:57.007Z,988.28
2022-12-23T07:07:57.024Z,988.29
2022-12-23T07:08:57.044Z,988.33
2022-12-23T07:09:57.055Z,988.3
2022-12-23T07:10:57.066Z,988.36
2022-12-23T07:11:57.096Z,988.38
2022-12-23T07:12:57.098Z,988.39
2022-12-23T07:13:57.116Z,988.37
2022-12-23T07:14:57.142Z,988.43
2022-12-23T07:15:57.145Z,988.4
2022-12-23T07:16:57.276Z,988.39
2022-12-23T07:17:57.177Z,988.43
2022-12-23T07:18:57.195Z,988.41
2022-12-23T07:19:57.270Z,988.41
2022-12-23T07:20:57.219Z,988.43
2022-12-23T07:21:57.237Z,988.4
2022-12-23T07:22:57.250Z,988.38
2022-12-23T07:23:57.268Z,988.39
2022-12-23T07:24:57.281Z,988.4
2022-12-23T07:25:57.299Z,988.4
2022-12-23T07:26:57.317Z,988.41
2022-12-23T07:27:57.334Z,988.41
2022-12-23T07:28:57.345Z,988.39
2022-12-23T07:29:57.361Z,988.42
2022-12-23T07:30:57.375Z,988.43
2022-12-23T07:31:57.486Z,988.44
2022-12-23T07:32:57.409Z,988.43
2022-12-23T07:33:57.427Z,988.41
2022-12-23T07:34:57.437Z,988.43
2022-12-23T07:35:57.474Z,988.45
2022-12-23T07:36:57.468Z,988.43
2022-12-23T07:37:57.492Z,988.44
2022-12-23T07:38:57.500Z,988.47
2022-12-23T07:39:57.515Z,988.47
2022-12-23T07:40:57.533Z,988.48
2022-12-23T07:42:25.446Z,988.44
2022-12-23T07:42:57.566Z,988.44
2022-12-23T07:43:57.583Z,988.47
2022-12-23T07:44:57.603Z,988.46
2022-12-23T07:46:00.537Z,988.48
2022-12-23T07:46:57.622Z,988.5
2022-12-23T07:47:57.644Z,988.48
2022-12-23T07:48:57.657Z,988.48
2022-12-23T07:49:57.667Z,988.53
2022-12-23T07:50:57.686Z,988.51
2022-12-23T07:51:57.729Z,988.51
2022-12-23T07:52:57.713Z,988.51
2022-12-23T07:53:57.745Z,988.53
2022-12-23T07:54:57.743Z,988.54
2022-12-23T07:55:57.758Z,988.53
2022-12-23T07:56:57.780Z,988.52
2022-12-23T07:57:57.791Z,988.58
2022-12-23T07:58:57.809Z,988.51
2022-12-23T07:59:58.031Z,988.55
2022-12-23T08:00:57.862Z,988.55
2022-12-23T08:01:58.014Z,988.56
2022-12-23T08:02:58.028Z,988.56
2022-12-23T08:03:57.952Z,988.61
2022-12-23T08:04:57.969Z,988.61
2022-12-23T08:05:57.924Z,988.68
2022-12-23T08:06:57.943Z,988.75
2022-12-23T08:07:57.967Z,988.8
2022-12-23T08:08:57.964Z,988.84
2022-12-23T08:09:57.978Z,988.89
2022-12-23T08:10:57.997Z,988.92
2022-12-23T08:11:58.010Z,988.89
2022-12-23T08:12:58.029Z,988.93
2022-12-23T08:13:58.040Z,988.96
2022-12-23T08:14:58.055Z,988.99
2022-12-23T08:15:58.073Z,989.01
2022-12-23T08:16:58.362Z,989.05
2022-12-23T08:17:58.101Z,989.05
2022-12-23T08:18:58.120Z,989.07
2022-12-23T08:19:58.137Z,989.05
2022-12-23T08:20:58.147Z,989.06
2022-12-23T08:21:58.168Z,989.04
2022-12-23T08:22:58.193Z,989.07
2022-12-23T08:23:58.246Z,989
2022-12-23T08:24:58.208Z,988.96
2022-12-23T08:25:58.224Z,988.98
2022-12-23T08:26:58.236Z,989.02
2022-12-23T08:27:58.260Z,988.97
2022-12-23T08:28:58.276Z,989
2022-12-23T08:29:58.288Z,989
2022-12-23T08:30:58.377Z,989.02
2022-12-23T08:31:58.317Z,989.03
2022-12-23T08:32:58.338Z,989.03
2022-12-23T08:33:58.351Z,988.98
2022-12-23T08:34:58.366Z,988.95
2022-12-23T08:35:58.388Z,988.9
2022-12-23T08:36:58.397Z,988.92
2022-12-23T08:37:58.412Z,988.93
2022-12-23T08:38:58.423Z,988.96
2022-12-23T08:39:58.472Z,988.93
2022-12-23T08:40:58.461Z,988.95
2022-12-23T08:41:58.474Z,988.9
2022-12-23T08:42:58.488Z,988.88
2022-12-23T08:43:58.507Z,988.92
2022-12-23T08:44:58.519Z,988.9
2022-12-23T08:45:58.612Z,988.93
2022-12-23T08:46:58.549Z,988.94
2022-12-23T08:47:58.567Z,988.94
2022-12-23T08:48:58.580Z,989
2022-12-23T08:49:58.595Z,988.95
2022-12-23T08:50:58.608Z,988.97
2022-12-23T08:51:58.627Z,988.96
2022-12-23T08:52:58.640Z,988.97
2022-12-23T08:54:00.743Z,988.95
2022-12-23T08:54:58.676Z,988.95
2022-12-23T08:55:58.726Z,988.99
2022-12-23T08:56:58.713Z,989
2022-12-23T08:57:58.722Z,988.98
2022-12-23T08:58:58.734Z,988.9
2022-12-23T08:59:58.753Z,988.89
2022-12-23T09:00:58.776Z,988.93
2022-12-23T09:01:58.961Z,988.9
2022-12-23T09:02:58.892Z,988.94
2022-12-23T09:03:58.907Z,988.93
2022-12-23T09:04:58.828Z,988.94
2022-12-23T09:05:58.845Z,988.92
2022-12-23T09:06:58.855Z,988.95
2022-12-23T09:07:58.877Z,988.97
2022-12-23T09:08:58.888Z,988.9
2022-12-23T09:09:58.907Z,988.9
2022-12-23T09:10:58.924Z,988.91
2022-12-23T09:11:59.068Z,988.9
2022-12-23T09:12:58.951Z,988.9
2022-12-23T09:13:58.969Z,988.91
2022-12-23T09:14:58.982Z,988.93
2022-12-23T09:15:59.054Z,988.95
2022-12-23T09:16:59.515Z,988.98
2022-12-23T09:17:59.034Z,989
2022-12-23T09:18:59.049Z,989.04
2022-12-23T09:19:59.058Z,988.97
2022-12-23T09:20:59.083Z,988.99
2022-12-23T09:21:59.090Z,989
2022-12-23T09:22:59.114Z,988.98
2022-12-23T09:23:59.233Z,988.93
2022-12-23T09:25:04.718Z,988.96
2022-12-23T09:25:59.155Z,988.9
2022-12-23T09:26:59.173Z,988.93
2022-12-23T09:27:59.214Z,988.93
2022-12-23T09:28:59.217Z,988.96
2022-12-23T09:29:59.221Z,989.02
2022-12-23T09:30:59.271Z,989.01
2022-12-23T09:31:59.289Z,988.98
2022-12-23T09:32:59.263Z,989.02
2022-12-23T09:33:59.275Z,989.01
2022-12-23T09:34:59.297Z,989
2022-12-23T09:35:59.308Z,989.05
2022-12-23T09:36:59.472Z,989.03
2022-12-23T09:37:59.340Z,989.06
2022-12-23T09:38:59.384Z,989.04
2022-12-23T09:39:59.370Z,989.1
2022-12-23T09:40:59.385Z,989.1
2022-12-23T09:41:59.401Z,989.12
2022-12-23T09:42:59.420Z,989.13
2022-12-23T09:43:59.454Z,989.15
2022-12-23T09:44:59.447Z,989.08
2022-12-23T09:45:59.517Z,989.14
2022-12-23T09:46:59.533Z,989.12
2022-12-23T09:47:59.491Z,989.13
2022-12-23T09:48:59.521Z,989.2
2022-12-23T09:49:59.530Z,989.2
2022-12-23T09:50:59.544Z,989.17
2022-12-23T09:51:59.555Z,989.19
2022-12-23T09:52:59.576Z,989.22
2022-12-23T09:53:59.588Z,989.18
2022-12-23T09:54:59.605Z,989.19
2022-12-23T09:55:59.624Z,989.18
2022-12-23T09:56:59.636Z,989.16
2022-12-23T09:57:59.652Z,989.16
2022-12-23T09:58:59.669Z,989.15
2022-12-23T09:59:59.708Z,989.15
2022-12-23T10:00:59.699Z,989.1
2022-12-23T10:01:59.881Z,989.09
2022-12-23T10:02:59.989Z,989.05
2022-12-23T10:03:59.825Z,989
2022-12-23T10:04:59.759Z,989
2022-12-23T10:05:59.784Z,988.9
2022-12-23T10:07:02.946Z,988.87
2022-12-23T10:07:59.806Z,988.88
2022-12-23T10:08:59.818Z,988.9
2022-12-23T10:09:59.837Z,988.88
2022-12-23T10:10:59.852Z,988.85
2022-12-23T10:11:59.874Z,988.86
2022-12-23T10:12:59.882Z,988.85
2022-12-23T10:13:59.903Z,988.81
2022-12-23T10:14:59.916Z,988.78
2022-12-23T10:15:59.994Z,988.8
2022-12-23T10:17:00.340Z,988.77
2022-12-23T10:17:59.959Z,988.76
2022-12-23T10:18:59.993Z,988.76
2022-12-23T10:19:59.989Z,988.75
2022-12-23T10:21:00.004Z,988.79
2022-12-23T10:22:00.045Z,988.82
2022-12-23T10:23:00.038Z,988.81
2022-12-23T10:24:00.052Z,988.78
2022-12-23T10:25:00.105Z,988.81
2022-12-23T10:26:00.097Z,988.79
2022-12-23T10:27:00.117Z,988.82
2022-12-23T10:28:00.128Z,988.83
2022-12-23T10:29:00.133Z,988.82
2022-12-23T10:30:09.617Z,988.8
2022-12-23T10:31:52.427Z,988.81
2022-12-23T10:32:52.451Z,988.8
2022-12-23T10:33:52.403Z,988.82
2022-12-23T10:34:52.474Z,988.81
2022-12-23T10:35:52.472Z,988.81
2022-12-23T10:36:52.510Z,988.82
2022-12-23T10:37:52.466Z,988.83
2022-12-23T10:38:52.504Z,988.83
2022-12-23T10:39:52.495Z,988.83
2022-12-23T10:40:52.519Z,988.78
2022-12-23T10:41:52.523Z,988.82
2022-12-23T10:42:52.565Z,988.8
2022-12-23T10:43:52.557Z,988.75
2022-12-23T10:44:52.575Z,988.75
2022-12-23T10:45:52.588Z,988.71
2022-12-23T10:46:52.733Z,988.71
2022-12-23T10:47:52.651Z,988.66
2022-12-23T10:48:52.653Z,988.68
2022-12-23T10:49:52.649Z,988.67
2022-12-23T10:50:52.667Z,988.68
2022-12-23T10:51:52.684Z,988.63
2022-12-23T10:52:52.695Z,988.63
2022-12-23T10:53:52.710Z,988.62
2022-12-23T10:54:52.733Z,988.66
2022-12-23T10:55:52.749Z,988.67
2022-12-23T10:56:52.760Z,988.69
2022-12-23T10:57:52.778Z,988.71
2022-12-23T10:58:52.803Z,988.72
2022-12-23T10:59:52.807Z,988.71
2022-12-23T11:00:52.874Z,988.68
2022-12-23T11:01:53.008Z,988.67
2022-12-23T11:02:52.936Z,988.7
2022-12-23T11:03:52.986Z,988.68
2022-12-23T11:04:52.883Z,988.67
2022-12-23T11:05:52.898Z,988.65
2022-12-23T11:07:11.014Z,988.64
2022-12-23T11:07:58.412Z,988.63
2022-12-23T11:08:58.427Z,988.61
2022-12-23T11:09:58.442Z,988.62
2022-12-23T11:10:58.457Z,988.58
2022-12-23T11:11:58.478Z,988.54
2022-12-23T11:12:58.490Z,988.56
2022-12-23T11:13:58.503Z,988.51
2022-12-23T11:14:58.528Z,988.53
2022-12-23T11:15:58.575Z,988.51
2022-12-23T11:16:58.557Z,988.54
2022-12-23T11:17:58.941Z,988.54
2022-12-23T11:18:58.608Z,988.52
2022-12-23T11:19:58.599Z,988.49
2022-12-23T11:20:58.611Z,988.52
2022-12-23T11:21:58.632Z,988.43
2022-12-23T11:22:58.644Z,988.44
2022-12-23T11:23:58.660Z,988.41
2022-12-23T11:24:58.672Z,988.36
2022-12-23T11:25:58.688Z,988.36
2022-12-23T11:26:58.727Z,988.29
2022-12-23T11:27:58.725Z,988.27
2022-12-23T11:28:58.742Z,988.26
2022-12-23T11:29:58.753Z,988.24
2022-12-23T11:30:58.768Z,988.23
2022-12-23T11:31:58.833Z,988.18
2022-12-23T11:32:58.807Z,988.18
2022-12-23T11:33:58.815Z,988.19
2022-12-23T11:34:58.928Z,988.17
2022-12-23T11:35:58.849Z,988.16
2022-12-23T11:37:03.543Z,988.11
2022-12-23T11:37:58.883Z,988.08
2022-12-23T11:38:58.892Z,988.06
2022-12-23T11:39:58.906Z,988.08
2022-12-23T11:40:58.923Z,988.09
2022-12-23T11:41:58.941Z,988.06
2022-12-23T11:42:58.969Z,988.09
2022-12-23T11:43:58.993Z,988.04
2022-12-23T11:44:58.990Z,988.04
2022-12-23T11:45:59.027Z,988.03
2022-12-23T11:46:59.016Z,988
2022-12-23T11:47:59.031Z,987.98
2022-12-23T11:48:59.048Z,987.95
2022-12-23T11:49:59.058Z,987.93
2022-12-23T11:50:59.099Z,987.95
2022-12-23T11:51:59.093Z,987.95
2022-12-23T11:52:59.112Z,987.97
2022-12-23T11:53:59.125Z,987.92
2022-12-23T11:54:59.144Z,987.91
2022-12-23T11:55:59.154Z,987.9
2022-12-23T11:56:59.231Z,987.85
2022-12-23T11:57:59.185Z,987.85
2022-12-23T11:58:59.203Z,987.85
2022-12-23T11:59:59.218Z,987.85
2022-12-23T12:00:59.235Z,987.87
2022-12-23T12:01:59.352Z,987.82
2022-12-23T12:02:59.305Z,987.81
2022-12-23T12:03:59.415Z,987.74
2022-12-23T12:04:59.297Z,987.73
2022-12-23T12:05:59.311Z,987.71
2022-12-23T12:06:59.470Z,987.68
2022-12-23T12:07:59.340Z,987.71
2022-12-23T12:08:59.558Z,987.65
2022-12-23T12:09:59.401Z,987.59
2022-12-23T12:10:59.388Z,987.52
2022-12-23T12:11:59.401Z,987.46
2022-12-23T12:12:59.416Z,987.47
2022-12-23T12:13:59.431Z,987.42
2022-12-23T12:14:59.450Z,987.4
2022-12-23T12:15:59.465Z,987.39
2022-12-23T12:16:59.556Z,987.39
2022-12-23T12:17:59.896Z,987.36
2022-12-23T12:18:59.511Z,987.34
2022-12-23T12:19:59.539Z,987.35
2022-12-23T12:20:59.555Z,987.35
2022-12-23T12:21:59.558Z,987.33
2022-12-23T12:22:59.606Z,987.34
2022-12-23T12:24:15.054Z,987.3
2022-12-23T12:24:59.604Z,987.26
2022-12-23T12:25:59.637Z,987.3
2022-12-23T12:26:59.644Z,987.32
2022-12-23T12:27:59.663Z,987.28
2022-12-23T12:28:59.673Z,987.24
2022-12-23T12:30:03.256Z,987.22
2022-12-23T12:30:59.743Z,987.23
2022-12-23T12:31:59.723Z,987.27
2022-12-23T12:32:59.732Z,987.3